createdAt,value
2018-07-02T00:00:00.838Z,4.2
2018-07-02T00:10:00.773Z,3.5
2018-07-02T00:15:00.710Z,3.5
2018-07-02T00:20:00.751Z,3.7
2018-07-02T00:25:00.709Z,3.8
2018-07-02T00:30:00.821Z,4.0
2018-07-02T00:35:00.691Z,3.8
2018-07-02T00:40:00.767Z,4.0
2018-07-02T00:45:00.827Z,4.4
2018-07-02T00:50:00.866Z,4.9
2018-07-02T00:55:00.767Z,4.8
2018-07-02T01:00:07.731Z,5.3
2018-07-02T01:05:00.672Z,5.4
2018-07-02T01:10:00.796Z,4.8
2018-07-02T01:15:00.737Z,4.7
2018-07-02T01:20:00.745Z,4.8
2018-07-02T01:25:00.676Z,5.0
2018-07-02T01:30:00.743Z,5.4
2018-07-02T01:35:00.677Z,5.3
2018-07-02T01:45:00.813Z,5.5
2018-07-02T01:50:00.741Z,5.3
2018-07-02T01:55:00.684Z,5.1
2018-07-02T02:00:00.754Z,5.2
2018-07-02T02:05:00.690Z,4.8
2018-07-02T02:10:00.894Z,4.5
2018-07-02T02:15:00.757Z,4.5
2018-07-02T02:20:00.831Z,4.4
2018-07-02T02:25:00.705Z,4.9
2018-07-02T02:30:00.842Z,5.2
2018-07-02T02:35:00.702Z,5.3
2018-07-02T02:40:00.842Z,5.0
2018-07-02T02:45:00.776Z,5.0
2018-07-02T02:50:00.798Z,4.4
2018-07-02T02:55:00.716Z,4.1
2018-07-02T03:00:00.785Z,4.2
2018-07-02T03:05:00.715Z,4.6
2018-07-02T03:10:00.849Z,4.7
2018-07-02T03:15:00.729Z,5.0
2018-07-02T03:20:00.784Z,4.9
2018-07-02T03:25:00.734Z,4.6
2018-07-02T03:30:00.792Z,4.6
2018-07-02T03:35:00.767Z,4.2
2018-07-02T03:40:00.865Z,4.5
2018-07-02T03:45:00.736Z,4.8
2018-07-02T03:50:00.798Z,5.2
2018-07-02T03:55:00.824Z,5.3
2018-07-02T04:00:00.802Z,5.9
2018-07-02T04:05:00.714Z,5.8
2018-07-02T04:10:00.807Z,6.0
2018-07-02T04:15:00.752Z,6.4
2018-07-02T04:20:00.816Z,6.6
2018-07-02T04:25:00.757Z,6.4
2018-07-02T04:30:00.829Z,6.5
2018-07-02T04:35:00.756Z,5.9
2018-07-02T04:45:00.769Z,5.5
2018-07-02T04:50:00.896Z,5.9
2018-07-02T04:55:00.791Z,6.1
2018-07-02T05:00:00.839Z,6.7
2018-07-02T05:05:00.839Z,6.6
2018-07-02T05:10:00.907Z,6.7
2018-07-02T05:15:00.773Z,6.8
2018-07-02T05:20:00.906Z,6.5
2018-07-02T05:25:00.745Z,6.1
2018-07-02T05:30:00.914Z,6.5
2018-07-02T05:40:00.894Z,6.2
2018-07-02T05:45:00.788Z,6.2
2018-07-02T05:50:00.926Z,6.4
2018-07-02T05:55:00.823Z,5.6
2018-07-02T06:00:00.791Z,5.4
2018-07-02T06:05:00.795Z,5.0
2018-07-02T06:10:00.831Z,4.9
2018-07-02T06:15:00.796Z,4.4
2018-07-02T06:25:00.996Z,4.0
2018-07-02T06:30:00.866Z,3.8
2018-07-02T06:35:00.803Z,3.5
2018-07-02T06:40:00.881Z,3.4
2018-07-02T06:45:00.826Z,2.9
2018-07-02T06:50:01.000Z,2.8
2018-07-02T07:00:00.903Z,2.8
2018-07-02T07:10:00.880Z,3.0
2018-07-02T07:15:00.895Z,3.1
2018-07-02T07:20:00.949Z,2.9
2018-07-02T07:30:00.830Z,2.8
2018-07-02T07:35:00.880Z,2.7
2018-07-02T07:45:00.900Z,3.0
2018-07-02T08:00:00.993Z,2.8
2018-07-02T08:05:00.839Z,2.9
2018-07-02T08:15:00.903Z,2.9
2018-07-02T08:25:00.969Z,3.2
2018-07-02T08:30:00.969Z,3.0
2018-07-02T08:45:01.129Z,2.9
2018-07-02T08:50:01.075Z,2.8
2018-07-02T09:00:01.005Z,2.7
2018-07-02T09:05:00.923Z,2.6
2018-07-02T09:15:00.986Z,2.5
2018-07-02T09:20:00.927Z,2.4
2018-07-02T09:25:00.892Z,2.5
2018-07-02T09:30:03.575Z,2.4
2018-07-02T09:35:00.901Z,2.2
2018-07-02T09:45:01.071Z,2.3
2018-07-02T09:50:01.003Z,2.4
2018-07-02T10:00:01.039Z,2.9
2018-07-02T10:05:00.880Z,3.1
2018-07-02T10:10:01.011Z,2.9
2018-07-02T10:15:00.891Z,3.0
2018-07-02T10:20:01.014Z,2.9
2018-07-02T10:25:00.891Z,2.2
2018-07-02T10:30:01.084Z,2.0
2018-07-02T10:40:00.995Z,1.6
2018-07-02T10:45:00.895Z,1.7
2018-07-02T10:55:01.097Z,1.5
2018-07-02T11:00:01.029Z,1.5
2018-07-02T11:05:00.967Z,1.7
2018-07-02T11:10:06.104Z,1.6
2018-07-02T11:15:00.901Z,1.8
2018-07-02T11:20:01.262Z,2.0
2018-07-02T11:25:00.937Z,2.4
2018-07-02T11:30:06.105Z,2.5
2018-07-02T11:40:01.051Z,2.3
2018-07-02T11:45:00.945Z,2.5
2018-07-02T11:50:01.136Z,2.2
2018-07-02T12:00:06.080Z,2.2
2018-07-02T12:05:00.955Z,2.4
2018-07-02T12:10:01.024Z,2.2
2018-07-02T12:15:02.013Z,2.2
2018-07-02T12:20:00.993Z,2.0
2018-07-02T12:30:01.136Z,2.2
2018-07-02T12:40:00.998Z,2.4
2018-07-02T12:45:00.961Z,2.4
2018-07-02T12:50:01.106Z,2.6
2018-07-02T12:55:00.941Z,2.4
2018-07-02T13:00:00.942Z,2.4
2018-07-02T13:05:00.945Z,2.2
2018-07-02T13:15:01.105Z,2.0
2018-07-02T13:25:00.954Z,2.1
2018-07-02T13:30:01.071Z,2.1
2018-07-02T13:40:00.993Z,2.0
2018-07-02T13:45:01.016Z,2.2
2018-07-02T13:55:01.060Z,2.3
2018-07-02T14:00:01.036Z,2.5
2018-07-02T14:10:00.979Z,2.3
2018-07-02T14:15:01.003Z,2.3
2018-07-02T14:20:01.059Z,2.4
2018-07-02T14:25:01.017Z,2.2
2018-07-02T14:30:01.080Z,2.3
2018-07-02T14:35:01.013Z,2.5
2018-07-02T14:40:01.025Z,2.7
2018-07-02T14:45:01.147Z,2.5
2018-07-02T14:55:06.090Z,2.2
2018-07-02T15:00:01.260Z,2.0
2018-07-02T15:05:01.025Z,1.6
2018-07-02T15:10:01.127Z,2.1
2018-07-02T15:15:00.965Z,2.1
2018-07-02T15:20:01.129Z,2.4
2018-07-02T15:30:01.073Z,2.6
2018-07-02T15:35:01.069Z,2.4
2018-07-02T15:40:01.076Z,2.5
2018-07-02T15:45:01.042Z,2.4
2018-07-02T16:00:01.107Z,2.2
2018-07-02T16:05:06.091Z,2.4
2018-07-02T16:10:06.092Z,2.5
2018-07-02T16:15:00.990Z,2.7
2018-07-02T16:25:01.086Z,2.6
2018-07-02T16:30:01.103Z,2.4
2018-07-02T16:35:01.028Z,2.2
2018-07-02T16:40:01.163Z,2.0
2018-07-02T16:45:01.034Z,2.0
2018-07-02T17:00:01.211Z,2.1
2018-07-02T17:05:01.110Z,2.4
2018-07-02T17:10:01.122Z,2.6
2018-07-02T17:15:01.131Z,2.6
2018-07-02T17:20:01.112Z,3.0
2018-07-02T17:25:01.118Z,3.2
2018-07-02T17:30:01.054Z,2.9
2018-07-02T17:35:01.056Z,2.8
2018-07-02T17:45:01.081Z,2.4
2018-07-02T17:50:01.137Z,2.2
2018-07-02T17:55:01.063Z,2.6
2018-07-02T18:00:01.131Z,2.6
2018-07-02T18:05:01.136Z,2.7
2018-07-02T18:15:01.075Z,2.8
2018-07-02T18:20:01.079Z,2.4
2018-07-02T18:25:01.107Z,2.2
2018-07-02T18:30:01.147Z,2.5
2018-07-02T18:40:01.160Z,2.6
2018-07-02T18:45:01.130Z,2.6
2018-07-02T18:55:01.192Z,2.5
2018-07-02T19:00:01.101Z,2.6
2018-07-02T19:05:01.161Z,2.5
2018-07-02T19:15:01.100Z,2.5
2018-07-02T19:20:01.559Z,2.7
2018-07-02T19:30:01.116Z,2.8
2018-07-02T19:35:01.114Z,3.2
2018-07-02T19:40:01.180Z,3.5
2018-07-02T19:45:01.189Z,3.5
2018-07-02T19:50:01.178Z,3.6
2018-07-02T20:00:01.228Z,3.3
2018-07-02T20:05:01.154Z,3.2
2018-07-02T20:10:01.188Z,3.0
2018-07-02T20:15:01.127Z,2.9
2018-07-02T20:25:01.201Z,3.0
2018-07-02T20:30:01.207Z,3.0
2018-07-02T20:35:01.197Z,3.2
2018-07-02T20:40:01.219Z,3.4
2018-07-02T20:45:01.222Z,3.4
2018-07-02T20:50:01.231Z,3.5
2018-07-02T20:55:01.173Z,3.6
2018-07-02T21:00:01.276Z,3.9
2018-07-02T21:05:01.187Z,3.7
2018-07-02T21:10:01.284Z,3.6
2018-07-02T21:15:01.148Z,3.7
2018-07-02T21:20:01.972Z,3.6
2018-07-02T21:25:01.189Z,3.2
2018-07-02T21:30:01.805Z,3.0
2018-07-02T21:35:01.245Z,3.2
2018-07-02T21:40:01.289Z,3.1
2018-07-02T21:45:01.164Z,3.2
2018-07-02T21:55:01.236Z,3.4
2018-07-02T22:00:01.174Z,3.4
2018-07-02T22:05:01.269Z,3.3
2018-07-02T22:10:01.239Z,3.2
2018-07-02T22:15:01.243Z,3.2
2018-07-02T22:20:01.306Z,3.5
2018-07-02T22:25:01.289Z,3.8
2018-07-02T22:30:01.245Z,3.8
2018-07-02T22:35:01.205Z,4.7
2018-07-02T22:45:01.254Z,4.6
2018-07-02T22:50:01.262Z,4.3
2018-07-02T22:55:01.261Z,4.5
2018-07-02T23:00:01.267Z,3.5
2018-07-02T23:05:01.264Z,3.7
2018-07-02T23:10:01.265Z,3.5
2018-07-02T23:15:01.262Z,3.3
2018-07-02T23:25:01.339Z,3.7
2018-07-02T23:30:01.338Z,3.7
2018-07-02T23:35:01.269Z,4.0
2018-07-02T23:40:01.261Z,4.4
2018-07-02T23:45:01.316Z,4.2
2018-07-02T23:55:01.255Z,4.0
